LNR56QH LIEE-LICR
Flight info
| Callsign | LNR56QH |
|---|---|
| Flight time | 1h 2m |
| Altitude | 19000 |
| Route | CAR Q152 TADIX DCT VACCE Q58 FOSQA |
| Aircraft | A320/M-SDE3FGHIRWY/LB1 |
Departure
| Time | 2026-04-22 07:26 |
|---|---|
| Airport | Cagliari Elmas Airport (LIEE) |
Arrival
| Time | 2026-04-22 08:28 |
|---|---|
| Airport | Reggio Calabria Airport (LICR) |
| Time | Latitude | Longitude | Altitude | Speed | Heading |
|---|---|---|---|---|---|
| 2026-04-22 07:02 | 39.25248 | 9.05867 | 17 ft | 0 kts | 66° |
| 2026-04-22 07:18 | 39.25240 | 9.05843 | 18 ft | 3 kts | 72° |
| 2026-04-22 07:18 | 39.25235 | 9.05815 | 17 ft | 3 kts | 88° |
| 2026-04-22 07:18 | 39.25238 | 9.05787 | 17 ft | 3 kts | 126° |
| 2026-04-22 07:18 | 39.25243 | 9.05778 | 17 ft | 0 kts | 141° |
| 2026-04-22 07:20 | 39.25242 | 9.05779 | 17 ft | 2 kts | 141° |
| 2026-04-22 07:20 | 39.25216 | 9.05808 | 17 ft | 5 kts | 139° |
| 2026-04-22 07:21 | 39.25165 | 9.05843 | 17 ft | 9 kts | 197° |
| 2026-04-22 07:21 | 39.25128 | 9.05789 | 17 ft | 7 kts | 223° |
| 2026-04-22 07:21 | 39.25088 | 9.05782 | 17 ft | 7 kts | 162° |
| 2026-04-22 07:21 | 39.25037 | 9.05834 | 17 ft | 9 kts | 137° |
| 2026-04-22 07:22 | 39.24991 | 9.05886 | 17 ft | 8 kts | 138° |
| 2026-04-22 07:22 | 39.24945 | 9.05940 | 17 ft | 11 kts | 138° |
| 2026-04-22 07:22 | 39.24883 | 9.06011 | 16 ft | 13 kts | 138° |
| 2026-04-22 07:22 | 39.24810 | 9.06096 | 17 ft | 15 kts | 137° |
| 2026-04-22 07:23 | 39.24735 | 9.06183 | 17 ft | 15 kts | 139° |
| 2026-04-22 07:23 | 39.24659 | 9.06271 | 16 ft | 14 kts | 137° |
| 2026-04-22 07:23 | 39.24586 | 9.06355 | 18 ft | 14 kts | 138° |
| 2026-04-22 07:23 | 39.24516 | 9.06437 | 16 ft | 13 kts | 138° |
| 2026-04-22 07:24 | 39.24452 | 9.06511 | 17 ft | 13 kts | 138° |
| 2026-04-22 07:24 | 39.24364 | 9.06576 | 16 ft | 15 kts | 182° |
| 2026-04-22 07:24 | 39.24268 | 9.06533 | 16 ft | 14 kts | 212° |
| 2026-04-22 07:24 | 39.24274 | 9.06438 | 16 ft | 7 kts | 316° |
| 2026-04-22 07:25 | 39.24275 | 9.06437 | 16 ft | 0 kts | 317° |
| 2026-04-22 07:25 | 39.24350 | 9.06349 | 17 ft | 50 kts | 318° |
| 2026-04-22 07:25 | 39.24796 | 9.05838 | 18 ft | 117 kts | 318° |
| 2026-04-22 07:25 | 39.25520 | 9.05001 | 96 ft | 159 kts | 318° |
| 2026-04-22 07:26 | 39.26326 | 9.04059 | 775 ft | 158 kts | 318° |
| 2026-04-22 07:26 | 39.27241 | 9.03278 | 1447 ft | 160 kts | 350° |
| 2026-04-22 07:26 | 39.28322 | 9.03517 | 2076 ft | 165 kts | 30° |
| 2026-04-22 07:26 | 39.29133 | 9.04666 | 2432 ft | 188 kts | 68° |
| 2026-04-22 07:27 | 39.29373 | 9.06413 | 2749 ft | 210 kts | 84° |
| 2026-04-22 07:27 | 39.29530 | 9.08365 | 3329 ft | 223 kts | 84° |
| 2026-04-22 07:27 | 39.29691 | 9.10363 | 4209 ft | 224 kts | 84° |
| 2026-04-22 07:27 | 39.29855 | 9.12376 | 5074 ft | 226 kts | 83° |
| 2026-04-22 07:28 | 39.30200 | 9.16450 | 6690 ft | 234 kts | 82° |
| 2026-04-22 07:28 | 39.30353 | 9.18571 | 7433 ft | 241 kts | 89° |
| 2026-04-22 07:28 | 39.30057 | 9.20739 | 8129 ft | 250 kts | 110° |
| 2026-04-22 07:29 | 39.29162 | 9.22727 | 8499 ft | 273 kts | 130° |
| 2026-04-22 07:29 | 39.27891 | 9.24684 | 8900 ft | 294 kts | 130° |
| 2026-04-22 07:29 | 39.26555 | 9.26743 | 9594 ft | 303 kts | 130° |
| 2026-04-22 07:29 | 39.25182 | 9.28870 | 10276 ft | 315 kts | 130° |
| 2026-04-22 07:30 | 39.23725 | 9.31134 | 10590 ft | 339 kts | 130° |
| 2026-04-22 07:30 | 39.22186 | 9.33533 | 11087 ft | 354 kts | 130° |
| 2026-04-22 07:30 | 39.20603 | 9.36010 | 11820 ft | 361 kts | 130° |
| 2026-04-22 07:30 | 39.18992 | 9.38528 | 12547 ft | 366 kts | 130° |
| 2026-04-22 07:31 | 39.17356 | 9.41083 | 13274 ft | 371 kts | 130° |
| 2026-04-22 07:31 | 39.15705 | 9.43660 | 14017 ft | 375 kts | 130° |
| 2026-04-22 07:31 | 39.14035 | 9.46268 | 14712 ft | 379 kts | 130° |
| 2026-04-22 07:31 | 39.12522 | 9.49023 | 15364 ft | 384 kts | 119° |
| 2026-04-22 07:32 | 39.11416 | 9.52164 | 16012 ft | 387 kts | 107° |
| 2026-04-22 07:32 | 39.10800 | 9.55547 | 16649 ft | 390 kts | 95° |
| 2026-04-22 07:32 | 39.10552 | 9.59047 | 17276 ft | 393 kts | 93° |
| 2026-04-22 07:32 | 39.10395 | 9.61381 | 17699 ft | 395 kts | 93° |
| 2026-04-22 07:33 | 39.10152 | 9.64926 | 18306 ft | 399 kts | 93° |
| 2026-04-22 07:33 | 39.09901 | 9.68512 | 18813 ft | 403 kts | 93° |
| 2026-04-22 07:33 | 39.09645 | 9.72112 | 18965 ft | 403 kts | 93° |
| 2026-04-22 07:33 | 39.09386 | 9.75672 | 18998 ft | 396 kts | 94° |
| 2026-04-22 07:34 | 39.09124 | 9.79194 | 18999 ft | 395 kts | 94° |
| 2026-04-22 07:34 | 39.08867 | 9.82667 | 18999 ft | 394 kts | 94° |
| 2026-04-22 07:34 | 39.08611 | 9.86185 | 18997 ft | 394 kts | 93° |
| 2026-04-22 07:34 | 39.08360 | 9.89698 | 18999 ft | 394 kts | 93° |
| 2026-04-22 07:35 | 39.08107 | 9.93215 | 18998 ft | 394 kts | 94° |
| 2026-04-22 07:35 | 39.07848 | 9.96721 | 18997 ft | 394 kts | 94° |
| 2026-04-22 07:35 | 39.07585 | 10.00234 | 18998 ft | 394 kts | 94° |
| 2026-04-22 07:35 | 39.07323 | 10.03738 | 18999 ft | 394 kts | 94° |
| 2026-04-22 07:36 | 39.07057 | 10.07272 | 18994 ft | 395 kts | 94° |
| 2026-04-22 07:36 | 39.06792 | 10.10787 | 18995 ft | 396 kts | 94° |
| 2026-04-22 07:36 | 39.06526 | 10.14321 | 18997 ft | 396 kts | 94° |
| 2026-04-22 07:36 | 39.06262 | 10.17799 | 18999 ft | 396 kts | 94° |
| 2026-04-22 07:37 | 39.05993 | 10.21331 | 19002 ft | 396 kts | 94° |
| 2026-04-22 07:37 | 39.05723 | 10.24863 | 19003 ft | 396 kts | 94° |
| 2026-04-22 07:37 | 39.05453 | 10.28407 | 19004 ft | 396 kts | 94° |
| 2026-04-22 07:37 | 39.05182 | 10.31946 | 19004 ft | 397 kts | 94° |
| 2026-04-22 07:38 | 39.04912 | 10.35480 | 19005 ft | 397 kts | 94° |
| 2026-04-22 07:38 | 39.04638 | 10.39018 | 19004 ft | 397 kts | 94° |
| 2026-04-22 07:38 | 39.04360 | 10.42547 | 19002 ft | 397 kts | 94° |
| 2026-04-22 07:38 | 39.04086 | 10.46045 | 19002 ft | 397 kts | 94° |
| 2026-04-22 07:39 | 39.03811 | 10.49578 | 19002 ft | 397 kts | 94° |
| 2026-04-22 07:39 | 39.03534 | 10.53114 | 19004 ft | 397 kts | 94° |
| 2026-04-22 07:39 | 39.03258 | 10.56654 | 19004 ft | 397 kts | 94° |
| 2026-04-22 07:39 | 39.02979 | 10.60193 | 19003 ft | 397 kts | 94° |
| 2026-04-22 07:40 | 39.02697 | 10.63729 | 19003 ft | 397 kts | 94° |
| 2026-04-22 07:40 | 39.02418 | 10.67226 | 19003 ft | 397 kts | 94° |
| 2026-04-22 07:40 | 39.02134 | 10.70770 | 19002 ft | 397 kts | 94° |
| 2026-04-22 07:40 | 39.01851 | 10.74302 | 19001 ft | 397 kts | 94° |
| 2026-04-22 07:41 | 39.01567 | 10.77832 | 18998 ft | 397 kts | 94° |
| 2026-04-22 07:41 | 39.01282 | 10.81365 | 18997 ft | 396 kts | 94° |
| 2026-04-22 07:41 | 39.00998 | 10.84852 | 18996 ft | 397 kts | 94° |
| 2026-04-22 07:41 | 39.00709 | 10.88393 | 18995 ft | 396 kts | 94° |
| 2026-04-22 07:42 | 39.00417 | 10.91920 | 18994 ft | 397 kts | 94° |
| 2026-04-22 07:42 | 39.00126 | 10.95455 | 18996 ft | 396 kts | 94° |
| 2026-04-22 07:42 | 38.99840 | 10.98942 | 18993 ft | 397 kts | 94° |
| 2026-04-22 07:42 | 38.99547 | 11.02477 | 18993 ft | 396 kts | 94° |
| 2026-04-22 07:43 | 38.99250 | 11.06015 | 18990 ft | 396 kts | 94° |
| 2026-04-22 07:43 | 38.98957 | 11.09545 | 18985 ft | 396 kts | 94° |
| 2026-04-22 07:43 | 38.98667 | 11.13074 | 18984 ft | 397 kts | 94° |
| 2026-04-22 07:43 | 38.98380 | 11.16560 | 18983 ft | 397 kts | 94° |
| 2026-04-22 07:44 | 38.98087 | 11.20097 | 18981 ft | 397 kts | 94° |
| 2026-04-22 07:44 | 38.97789 | 11.23626 | 18981 ft | 397 kts | 94° |
| 2026-04-22 07:44 | 38.97491 | 11.27157 | 18987 ft | 397 kts | 94° |
| 2026-04-22 07:44 | 38.97191 | 11.30696 | 18985 ft | 397 kts | 94° |
| 2026-04-22 07:45 | 38.96891 | 11.34237 | 18985 ft | 397 kts | 94° |
| 2026-04-22 07:45 | 38.96587 | 11.37761 | 18986 ft | 397 kts | 94° |
| 2026-04-22 07:45 | 38.96285 | 11.41256 | 18987 ft | 398 kts | 95° |
| 2026-04-22 07:45 | 38.95981 | 11.44788 | 18990 ft | 398 kts | 94° |
| 2026-04-22 07:46 | 38.95678 | 11.48329 | 18988 ft | 398 kts | 94° |
| 2026-04-22 07:46 | 38.95370 | 11.51862 | 18986 ft | 398 kts | 95° |
| 2026-04-22 07:46 | 38.95060 | 11.55392 | 18986 ft | 398 kts | 95° |
| 2026-04-22 07:46 | 38.94750 | 11.58921 | 18990 ft | 398 kts | 95° |
| 2026-04-22 07:47 | 38.94440 | 11.62454 | 18984 ft | 398 kts | 95° |
| 2026-04-22 07:47 | 38.94132 | 11.65987 | 18980 ft | 398 kts | 95° |
| 2026-04-22 07:47 | 38.93824 | 11.69527 | 18985 ft | 398 kts | 95° |
| 2026-04-22 07:47 | 38.93515 | 11.73067 | 18982 ft | 398 kts | 95° |
| 2026-04-22 07:48 | 38.93204 | 11.76603 | 18981 ft | 399 kts | 95° |
| 2026-04-22 07:48 | 38.92891 | 11.80102 | 18984 ft | 399 kts | 95° |
| 2026-04-22 07:48 | 38.92567 | 11.83652 | 18989 ft | 398 kts | 95° |
| 2026-04-22 07:48 | 38.92244 | 11.87193 | 18986 ft | 398 kts | 95° |
| 2026-04-22 07:49 | 38.91924 | 11.90691 | 18984 ft | 398 kts | 95° |
| 2026-04-22 07:49 | 38.91605 | 11.94227 | 18983 ft | 398 kts | 95° |
| 2026-04-22 07:49 | 38.91287 | 11.97772 | 18984 ft | 398 kts | 95° |
| 2026-04-22 07:49 | 38.90968 | 12.01317 | 18990 ft | 398 kts | 95° |
| 2026-04-22 07:50 | 38.90652 | 12.04811 | 18984 ft | 399 kts | 95° |
| 2026-04-22 07:50 | 38.90329 | 12.08347 | 18981 ft | 399 kts | 95° |
| 2026-04-22 07:50 | 38.90001 | 12.11888 | 18982 ft | 399 kts | 95° |
| 2026-04-22 07:50 | 38.89673 | 12.15428 | 18984 ft | 399 kts | 95° |
| 2026-04-22 07:51 | 38.89343 | 12.18972 | 18982 ft | 399 kts | 95° |
| 2026-04-22 07:51 | 38.89012 | 12.22522 | 18981 ft | 399 kts | 95° |
| 2026-04-22 07:51 | 38.88683 | 12.26059 | 18983 ft | 399 kts | 95° |
| 2026-04-22 07:51 | 38.88356 | 12.29554 | 18987 ft | 399 kts | 95° |
| 2026-04-22 07:52 | 38.88022 | 12.33108 | 18985 ft | 399 kts | 95° |
| 2026-04-22 07:52 | 38.87688 | 12.36652 | 18984 ft | 399 kts | 95° |
| 2026-04-22 07:52 | 38.87352 | 12.40195 | 18986 ft | 399 kts | 95° |
| 2026-04-22 07:52 | 38.87013 | 12.43738 | 18985 ft | 399 kts | 95° |
| 2026-04-22 07:53 | 38.86884 | 12.47237 | 18982 ft | 397 kts | 88° |
| 2026-04-22 07:53 | 38.86849 | 12.50781 | 18978 ft | 397 kts | 89° |
| 2026-04-22 07:53 | 38.86804 | 12.54346 | 18974 ft | 398 kts | 89° |
| 2026-04-22 07:53 | 38.86758 | 12.57897 | 18974 ft | 398 kts | 89° |
| 2026-04-22 07:54 | 38.86708 | 12.61448 | 18969 ft | 398 kts | 89° |
| 2026-04-22 07:54 | 38.86655 | 12.64999 | 18973 ft | 398 kts | 89° |
| 2026-04-22 07:54 | 38.86602 | 12.68558 | 18973 ft | 398 kts | 89° |
| 2026-04-22 07:54 | 38.86546 | 12.72103 | 18967 ft | 398 kts | 89° |
| 2026-04-22 07:55 | 38.86490 | 12.75650 | 18972 ft | 398 kts | 89° |
| 2026-04-22 07:55 | 38.86434 | 12.79167 | 18968 ft | 398 kts | 89° |
| 2026-04-22 07:55 | 38.86379 | 12.82712 | 18975 ft | 398 kts | 89° |
| 2026-04-22 07:55 | 38.86325 | 12.86262 | 18974 ft | 398 kts | 89° |
| 2026-04-22 07:56 | 38.86272 | 12.89817 | 18973 ft | 398 kts | 89° |
| 2026-04-22 07:56 | 38.86216 | 12.93365 | 18968 ft | 398 kts | 89° |
| 2026-04-22 07:56 | 38.86152 | 12.96935 | 18975 ft | 398 kts | 89° |
| 2026-04-22 07:56 | 38.86085 | 13.00504 | 18980 ft | 399 kts | 89° |
| 2026-04-22 07:57 | 38.86020 | 13.04015 | 18979 ft | 399 kts | 89° |
| 2026-04-22 07:57 | 38.85956 | 13.07581 | 18980 ft | 399 kts | 89° |
| 2026-04-22 07:57 | 38.85894 | 13.11142 | 18981 ft | 400 kts | 89° |
| 2026-04-22 07:57 | 38.85833 | 13.14711 | 18984 ft | 400 kts | 89° |
| 2026-04-22 07:58 | 38.85769 | 13.18288 | 18986 ft | 400 kts | 89° |
| 2026-04-22 07:58 | 38.85703 | 13.21867 | 18986 ft | 400 kts | 89° |
| 2026-04-22 07:58 | 38.85635 | 13.25393 | 18987 ft | 400 kts | 89° |
| 2026-04-22 07:58 | 38.85566 | 13.28956 | 18988 ft | 400 kts | 89° |
| 2026-04-22 07:59 | 38.85497 | 13.32539 | 18990 ft | 400 kts | 89° |
| 2026-04-22 07:59 | 38.85430 | 13.36117 | 18990 ft | 400 kts | 89° |
| 2026-04-22 07:59 | 38.85362 | 13.39688 | 18990 ft | 400 kts | 89° |
| 2026-04-22 07:59 | 38.85290 | 13.43263 | 18993 ft | 400 kts | 89° |
| 2026-04-22 08:00 | 38.85215 | 13.46784 | 18992 ft | 399 kts | 89° |
| 2026-04-22 08:00 | 38.85134 | 13.50343 | 18994 ft | 399 kts | 90° |
| 2026-04-22 08:00 | 38.85051 | 13.53917 | 18993 ft | 399 kts | 90° |
| 2026-04-22 08:00 | 38.84971 | 13.57484 | 18991 ft | 399 kts | 89° |
| 2026-04-22 08:01 | 38.84896 | 13.61035 | 18993 ft | 399 kts | 89° |
| 2026-04-22 08:01 | 38.84822 | 13.64598 | 18993 ft | 399 kts | 89° |
| 2026-04-22 08:01 | 38.84750 | 13.68156 | 18992 ft | 399 kts | 89° |
| 2026-04-22 08:01 | 38.84675 | 13.71666 | 18992 ft | 399 kts | 89° |
| 2026-04-22 08:02 | 38.84595 | 13.75271 | 18992 ft | 399 kts | 90° |
| 2026-04-22 08:02 | 38.84514 | 13.78780 | 18996 ft | 399 kts | 90° |
| 2026-04-22 08:02 | 38.84431 | 13.82337 | 18997 ft | 399 kts | 90° |
| 2026-04-22 08:02 | 38.84347 | 13.85903 | 19001 ft | 399 kts | 90° |
| 2026-04-22 08:03 | 38.84262 | 13.89462 | 18999 ft | 399 kts | 90° |
| 2026-04-22 08:03 | 38.84176 | 13.93029 | 18999 ft | 399 kts | 90° |
| 2026-04-22 08:03 | 38.84091 | 13.96595 | 19000 ft | 399 kts | 90° |
| 2026-04-22 08:03 | 38.84005 | 14.00155 | 18999 ft | 399 kts | 90° |
| 2026-04-22 08:04 | 38.83920 | 14.03706 | 18998 ft | 399 kts | 90° |
| 2026-04-22 08:04 | 38.83831 | 14.07266 | 18997 ft | 399 kts | 90° |
| 2026-04-22 08:04 | 38.83737 | 14.10816 | 18996 ft | 399 kts | 90° |
| 2026-04-22 08:04 | 38.83641 | 14.14379 | 18998 ft | 399 kts | 90° |
| 2026-04-22 08:05 | 38.83544 | 14.17888 | 18992 ft | 399 kts | 90° |
| 2026-04-22 08:05 | 38.83444 | 14.21455 | 18992 ft | 399 kts | 90° |
| 2026-04-22 08:05 | 38.83343 | 14.25022 | 18994 ft | 400 kts | 90° |
| 2026-04-22 08:05 | 38.83244 | 14.28583 | 18996 ft | 400 kts | 90° |
| 2026-04-22 08:06 | 38.83143 | 14.32159 | 18997 ft | 400 kts | 90° |
| 2026-04-22 08:06 | 38.83006 | 14.35723 | 18998 ft | 400 kts | 95° |
| 2026-04-22 08:06 | 38.82514 | 14.39233 | 19000 ft | 401 kts | 101° |
| 2026-04-22 08:06 | 38.81911 | 14.42724 | 19000 ft | 401 kts | 102° |
| 2026-04-22 08:07 | 38.81303 | 14.46219 | 19000 ft | 401 kts | 102° |
| 2026-04-22 08:07 | 38.80691 | 14.49714 | 18999 ft | 402 kts | 102° |
| 2026-04-22 08:07 | 38.80096 | 14.53113 | 19001 ft | 402 kts | 102° |
| 2026-04-22 08:07 | 38.79495 | 14.56566 | 19004 ft | 402 kts | 102° |
| 2026-04-22 08:08 | 38.78889 | 14.60068 | 19003 ft | 402 kts | 102° |
| 2026-04-22 08:08 | 38.78283 | 14.63562 | 19006 ft | 402 kts | 102° |
| 2026-04-22 08:08 | 38.77673 | 14.67070 | 19008 ft | 402 kts | 102° |
| 2026-04-22 08:08 | 38.77062 | 14.70569 | 19008 ft | 402 kts | 102° |
| 2026-04-22 08:09 | 38.76452 | 14.74067 | 19009 ft | 402 kts | 102° |
| 2026-04-22 08:09 | 38.75841 | 14.77565 | 19010 ft | 402 kts | 102° |
| 2026-04-22 08:09 | 38.75228 | 14.81066 | 19011 ft | 402 kts | 102° |
| 2026-04-22 08:09 | 38.74613 | 14.84561 | 19010 ft | 402 kts | 102° |
| 2026-04-22 08:10 | 38.74003 | 14.88011 | 19011 ft | 402 kts | 102° |
| 2026-04-22 08:10 | 38.73385 | 14.91500 | 19010 ft | 402 kts | 102° |
| 2026-04-22 08:10 | 38.72764 | 14.95000 | 19011 ft | 402 kts | 102° |
| 2026-04-22 08:10 | 38.72146 | 14.98484 | 19011 ft | 401 kts | 102° |
| 2026-04-22 08:11 | 38.71526 | 15.01972 | 19012 ft | 401 kts | 102° |
| 2026-04-22 08:11 | 38.70744 | 15.05402 | 19012 ft | 401 kts | 112° |
| 2026-04-22 08:11 | 38.69484 | 15.08584 | 19012 ft | 400 kts | 124° |
| 2026-04-22 08:11 | 38.67787 | 15.11394 | 19011 ft | 398 kts | 136° |
| 2026-04-22 08:12 | 38.65757 | 15.13764 | 18943 ft | 393 kts | 143° |
| 2026-04-22 08:12 | 38.63684 | 15.15991 | 18629 ft | 386 kts | 143° |
| 2026-04-22 08:12 | 38.61666 | 15.18155 | 18147 ft | 377 kts | 143° |
| 2026-04-22 08:12 | 38.59680 | 15.20285 | 17678 ft | 368 kts | 143° |
| 2026-04-22 08:13 | 38.57716 | 15.22392 | 17198 ft | 369 kts | 143° |
| 2026-04-22 08:13 | 38.55738 | 15.24508 | 16732 ft | 369 kts | 143° |
| 2026-04-22 08:13 | 38.53770 | 15.26612 | 16261 ft | 368 kts | 143° |
| 2026-04-22 08:13 | 38.51809 | 15.28707 | 15817 ft | 366 kts | 144° |
| 2026-04-22 08:14 | 38.49698 | 15.30479 | 15393 ft | 359 kts | 155° |
| 2026-04-22 08:14 | 38.47532 | 15.31948 | 14999 ft | 348 kts | 155° |
| 2026-04-22 08:14 | 38.45396 | 15.33398 | 14593 ft | 348 kts | 155° |
| 2026-04-22 08:14 | 38.43259 | 15.34852 | 14186 ft | 347 kts | 155° |
| 2026-04-22 08:15 | 38.41155 | 15.36288 | 13782 ft | 347 kts | 155° |
| 2026-04-22 08:15 | 38.39024 | 15.37743 | 13372 ft | 346 kts | 155° |
| 2026-04-22 08:15 | 38.36912 | 15.39186 | 12962 ft | 345 kts | 155° |
| 2026-04-22 08:15 | 38.34795 | 15.40627 | 12549 ft | 344 kts | 155° |
| 2026-04-22 08:16 | 38.32688 | 15.42057 | 12128 ft | 340 kts | 155° |
| 2026-04-22 08:16 | 38.30642 | 15.43447 | 11714 ft | 330 kts | 155° |
| 2026-04-22 08:16 | 38.28618 | 15.44816 | 11304 ft | 329 kts | 155° |
| 2026-04-22 08:16 | 38.26588 | 15.46186 | 10886 ft | 329 kts | 155° |
| 2026-04-22 08:17 | 38.24563 | 15.47552 | 10465 ft | 329 kts | 155° |
| 2026-04-22 08:17 | 38.22573 | 15.48895 | 10081 ft | 322 kts | 154° |
| 2026-04-22 08:17 | 38.20625 | 15.50214 | 9908 ft | 313 kts | 154° |
| 2026-04-22 08:17 | 38.18723 | 15.51504 | 9619 ft | 309 kts | 154° |
| 2026-04-22 08:18 | 38.16829 | 15.52786 | 9252 ft | 308 kts | 154° |
| 2026-04-22 08:18 | 38.14946 | 15.54059 | 8961 ft | 305 kts | 154° |
| 2026-04-22 08:18 | 38.13046 | 15.55180 | 8494 ft | 298 kts | 165° |
| 2026-04-22 08:18 | 38.11063 | 15.55672 | 8053 ft | 284 kts | 179° |
| 2026-04-22 08:19 | 38.09145 | 15.55597 | 7695 ft | 270 kts | 187° |
| 2026-04-22 08:19 | 38.07291 | 15.55421 | 7340 ft | 261 kts | 186° |
| 2026-04-22 08:19 | 38.05519 | 15.55260 | 6998 ft | 250 kts | 186° |
| 2026-04-22 08:19 | 38.03831 | 15.55110 | 6693 ft | 242 kts | 186° |
| 2026-04-22 08:20 | 38.02170 | 15.54960 | 6374 ft | 234 kts | 186° |
| 2026-04-22 08:20 | 38.00567 | 15.54817 | 6076 ft | 227 kts | 186° |
| 2026-04-22 08:20 | 37.99015 | 15.54679 | 5799 ft | 219 kts | 186° |
| 2026-04-22 08:20 | 37.98025 | 15.54590 | 5637 ft | 210 kts | 186° |
| 2026-04-22 08:21 | 37.96610 | 15.54464 | 5346 ft | 199 kts | 185° |
| 2026-04-22 08:21 | 37.95268 | 15.54339 | 5054 ft | 186 kts | 185° |
| 2026-04-22 08:21 | 37.94012 | 15.54223 | 4778 ft | 176 kts | 185° |
| 2026-04-22 08:21 | 37.92823 | 15.54114 | 4526 ft | 167 kts | 185° |
| 2026-04-22 08:22 | 37.91691 | 15.54213 | 4295 ft | 160 kts | 162° |
| 2026-04-22 08:22 | 37.90751 | 15.54858 | 4071 ft | 154 kts | 136° |
| 2026-04-22 08:22 | 37.90114 | 15.55904 | 3829 ft | 148 kts | 110° |
| 2026-04-22 08:22 | 37.89864 | 15.57132 | 3582 ft | 141 kts | 87° |
| 2026-04-22 08:23 | 37.89947 | 15.58345 | 3366 ft | 137 kts | 76° |
| 2026-04-22 08:23 | 37.90240 | 15.59467 | 3147 ft | 132 kts | 57° |
| 2026-04-22 08:23 | 37.90787 | 15.60384 | 2948 ft | 130 kts | 41° |
| 2026-04-22 08:23 | 37.91523 | 15.61037 | 2928 ft | 132 kts | 26° |
| 2026-04-22 08:24 | 37.92393 | 15.61439 | 2883 ft | 134 kts | 20° |
| 2026-04-22 08:24 | 37.93276 | 15.61814 | 2832 ft | 133 kts | 20° |
| 2026-04-22 08:24 | 37.94153 | 15.62188 | 2777 ft | 133 kts | 21° |
| 2026-04-22 08:24 | 37.95031 | 15.62562 | 2730 ft | 133 kts | 21° |
| 2026-04-22 08:25 | 37.95911 | 15.62929 | 2572 ft | 134 kts | 21° |
| 2026-04-22 08:25 | 37.96802 | 15.63294 | 2341 ft | 135 kts | 22° |
| 2026-04-22 08:25 | 37.97690 | 15.63658 | 2125 ft | 137 kts | 22° |
| 2026-04-22 08:25 | 37.98604 | 15.64032 | 1899 ft | 139 kts | 22° |
| 2026-04-22 08:26 | 37.99534 | 15.64413 | 1693 ft | 143 kts | 20° |
| 2026-04-22 08:26 | 38.00486 | 15.64804 | 1516 ft | 144 kts | 20° |
| 2026-04-22 08:26 | 38.01435 | 15.65207 | 1366 ft | 144 kts | 15° |
| 2026-04-22 08:26 | 38.02368 | 15.65664 | 1222 ft | 143 kts | 20° |
| 2026-04-22 08:27 | 38.03294 | 15.66100 | 1076 ft | 141 kts | 9° |
| 2026-04-22 08:27 | 38.04274 | 15.66214 | 943 ft | 142 kts | 358° |
| 2026-04-22 08:27 | 38.05271 | 15.66172 | 637 ft | 143 kts | 348° |
| 2026-04-22 08:27 | 38.06198 | 15.65750 | 254 ft | 146 kts | 333° |
| 2026-04-22 08:28 | 38.07086 | 15.65178 | 64 ft | 137 kts | 330° |
| 2026-04-22 08:28 | 38.07576 | 15.64857 | 65 ft | 24 kts | 332° |
| 2026-04-22 08:28 | 38.07677 | 15.64789 | 78 ft | 25 kts | 332° |
| 2026-04-22 08:28 | 38.07852 | 15.64676 | 88 ft | 31 kts | 336° |
| 2026-04-22 08:29 | 38.08044 | 15.64570 | 98 ft | 30 kts | 336° |
| 2026-04-22 08:29 | 38.08090 | 15.64505 | 98 ft | 7 kts | 181° |
| 2026-04-22 08:29 | 38.08006 | 15.64568 | 96 ft | 29 kts | 149° |
| 2026-04-22 08:29 | 38.07795 | 15.64719 | 85 ft | 37 kts | 153° |
| 2026-04-22 08:30 | 38.07566 | 15.64868 | 70 ft | 35 kts | 153° |
| 2026-04-22 08:30 | 38.07357 | 15.65001 | 61 ft | 32 kts | 152° |
| 2026-04-22 08:30 | 38.07295 | 15.65113 | 57 ft | 11 kts | 68° |
| 2026-04-22 08:30 | 38.07313 | 15.65156 | 60 ft | 0 kts | 62° |
| 2026-04-22 08:31 | 38.07333 | 15.65203 | 60 ft | 5 kts | 62° |
| 2026-04-22 08:32 | 38.07349 | 15.65244 | 60 ft | 5 kts | 64° |
| 2026-04-22 08:32 | 38.07361 | 15.65279 | 59 ft | 4 kts | 67° |
| 2026-04-22 08:32 | 38.07367 | 15.65298 | 59 ft | 0 kts | 70° |